Assonet, MA

6:19 PM EDT on May 29, 2015 (GMT -0400)
Proprietors Acres | | Change Station
CLOSE
Current Station
Personal Weather Station
Location: East Freetown, MA
Elevation: 165 ft
Nearby Weather Stations

Elev 165 ft 41.75 °N, 71.01 °W | Updated 12 minutes ago

Clear
Clear
77.0 °F
Feels Like 79 °F
N
0.0
Wind Variable Wind from East

Today
High -- | Low -- °F
--% Chance of Precip.
Yesterday
High -- | Low -- °F
Precip. -- in
5:13 AM 8:10 PM
Waxing Gibbous, 86% visible
Pressure 30.23 in
Visibility 10.0 miles
Clouds Few 4000 ft
Few 5000 ft
Heat Index 79 °F
Dew Point 58 °F
Humidity 51%
Rainfall 0.00 in
Snow Depth Not available.
UV 2 out of 12
Pollen 9.20 out of 12
Air Quality Not available.
Flu Activity Local Activity
METAR KTAN 292152Z AUTO 13007KT 10SM FEW040 FEW050 24/16 A3023 RMK AO2 SLP236 T02440156

More Conditions Fewer Conditions

Pressure 30.23 in
Visibility 10.0 miles
Clouds Few 4000 ft
Few 5000 ft
Heat Index 79 °F
Dew Point 58 °F
Humidity 51%
Rainfall 0.00 in
Snow Depth Not available.
UV 2 out of 12
Pollen 9.20 out of 12
Air Quality Not available.
Flu Activity Local Activity
METAR KTAN 292152Z AUTO 13007KT 10SM FEW040 FEW050 24/16 A3023 RMK AO2 SLP236 T02440156

More Conditions Fewer Conditions

10-Day Weather Forecast

Almanac

Astronomy

May. 29, 2015 Rise Set
Actual Time
Civil Twilight
Nautical Twilight
Astronomical Twilight
Moon
Length of Visible Light
Length of Day
Tomorrow will be .
, % of the Moon is Illuminated

Today's Extremes

State Highs State Lows

Community

WunderPhotos

Upload Photos

1,825,379 photos uploaded!

WunderBlogs® & News

Nearby

Air Quality

  Air Quality AQ Index Pollutant
Not available.

Snow Depth

Station Depth Elevation

Earthquake Activity

City Distance Mag. Time & Date
Minimum magnitude displayed is 2.5.

Coastal Water Temperatures

Place Temperature

Stations

Nearby Weather Stations

Station Location Temp. Windchill Dew Point Humidity Wind Precip. Elev Updated Type